Tiempo atmosférico en la estación meteorológica de Barco De Avila, Ávila (1012 m.)



Fecha
DESCASC
Temp. máxima en grados centígrados (hora)
DESCASC
Temp. mínima en grados centígrados (hora)
DESCASC
Temp. media en grados centígrados
DESCASC
Racha de viento máxima en m/sg (hora)
DESCASC
Velocidad máxima media en intervalos de 10 minutos(hora)
DESCASC
Precipitaciones diarias en mm
DESCASC
Precipitaciones de 00:00 a 06:00 en mm
DESCASC
Precipitaciones de 06:00 a 12:00 en mm
DESCASC
Precipitaciones de 12:00 a 18:00 en mm
DESCASC
Precipitaciones de 18:00 a 24:00 en mm
DESCASC
30-11-2020 16 (15:40) 3.5 (23:20) 9.8 6.94 (21:20) 4.17 (22:30) 0.4 0.4 0 0 0
29-11-2020 12.3 (14:30) 4.7 (00:00) 8.5 10.56 (11:50) 7.5 (12:40) 0 0 0 0 0
28-11-2020 11.7 (12:50) 3.3 (00:00) 7.5 8.89 (14:00) 5.83 (14:40) 0 0 0 0 0
27-11-2020 10.1 (13:10) 4.8 (00:00) 7.5 11.94 (12:10) 5.83 (12:20) 1.8 0.4 1.2 0.2 0
26-11-2020 8.6 (17:10) 6.5 (00:00) 7.6 15.28 (07:20) 9.44 (07:40) 14.4 2.6 2.2 5.8 3.8
25-11-2020 10.4 (13:00) 3.6 (00:00) 7 13.89 (16:50) 8.06 (18:50) 1.4 0 0 0.4 1
24-11-2020 13 (14:20) -1.2 (-00:0) 5.9 10.28 (17:40) 5.56 (17:30) 0 0 0 0 0
23-11-2020 15.9 (15:20) -1 (-00:0) 7.4 6.11 (07:40) 3.89 (07:40) 0 0 0 0 0
22-11-2020 16.7 (15:40) -0.6 (-00:0) 8.1 6.39 (02:40) 4.44 (02:30) 0 0 0 0 0
21-11-2020 16.4 (15:30) -1 (-00:0) 7.7 8.89 (02:10) 4.44 (02:10) 0 0 0 0 0
20-11-2020 17 (15:30) 0.9 (00:00) 8.9 7.78 (23:00) 3.89 (23:00) 0 0 0 0 0
19-11-2020 19.8 (15:10) 4 (00:00) 11.9 7.22 (14:40) 3.61 (08:20) 0 0 0 0 0
18-11-2020 22.3 (14:20) 3.6 (00:00) 12.9 5.56 (02:00) 3.33 (01:40) 0 0 0 0 0
17-11-2020 20.4 (14:00) 1.7 (00:00) 11 8.89 (15:10) 6.11 (15:10) 0 0 0 0 0
16-11-2020 17.8 (15:10) 5.1 (00:00) 11.4 5 (01:00) 3.06 (21:30) 0 0 0 0 0
15-11-2020 14.6 (21:20) 9 (00:00) 11.8 10.28 (13:10) 6.39 (13:10) 0.4 0 0.4 0 0
14-11-2020 14.9 (13:20) 8.3 (00:00) 11.6 10.83 (12:20) 6.94 (12:20) 1.4 0 1.4 0 0
13-11-2020 13.3 (16:20) 3.9 (00:00) 8.6 8.33 (15:50) 5 (15:40) 0 0 0 0 0
12-11-2020 15.2 (15:20) 4.2 (00:00) 9.7 5.28 (00:20) 3.61 (09:30) 0 0 0 0 0
11-11-2020 15 (14:30) 0 (00:00) 7.5 11.11 (14:40) 6.67 (12:50) 0 0 0 0 0
10-11-2020 15.5 (15:10) 2.1 (00:00) 8.8 5.56 (16:40) 3.33 (16:40) 0 0 0 0 0
09-11-2020 13.3 (17:30) 5.3 (00:00) 9.3 5.83 (02:40) 3.61 (00:50) 0 0 0 0 0
08-11-2020 13.6 (12:40) 9.7 (00:00) 11.7 12.22 (11:40) 7.78 (11:30) 11.8 0 0 3.2 8.6
07-11-2020 12.2 (15:00) 8.7 (00:00) 10.4 16.39 (00:40) 8.61 (00:40) 5.2 4.8 0.4 0 0
06-11-2020 15.9 (15:20) 9 (00:00) 12.4 19.17 (20:30) 9.72 (22:30) 15 3 1.8 3 7.2
05-11-2020 12 (12:40) 6.5 (00:00) 9.3 11.11 (12:00) 7.22 (18:40) 19.6 4 6.4 2.8 6.4
04-11-2020 9 (00:00) 4 (00:00) 6.5 6.94 (21:20) 4.17 (21:20) 14.8 0 0.6 7.6 6.6
03-11-2020 11 (05:50) 8 (00:00) 9.5 6.67 (06:00) 3.61 (06:20) 0 0 0 0 0
02-11-2020 16.9 (15:40) 9.8 (00:00) 13.3 3.61 (12:20) 1.94 (11:50) 0 0 0 0 0

Gráficas

Temp. máximas Temp. mínimas Temp. medias Precipitaciones Rachas de viento máximas Velocidades máximas media en intervalos de 10 minutos

Datos horarios

Fecha y hora oficial Temperatura (ºC) Velocidad del viento (km/h) Dirección del viento Racha (km/h) Dirección de racha Precipitación (mm) Presión (hPa) Tendencia (hPa) Humedad (%)
2020-12-01 23:00:00 1.4 13 Sudoeste 17 Sudoeste 0 -- -- 86
2020-12-01 22:00:00 1.5 9 Sudoeste 16 Sudoeste 0 -- -- 86
2020-12-01 21:00:00 2.6 9 Sudoeste 13 Sudoeste 0 -- -- 83
2020-12-01 20:00:00 3.6 4 Oeste 7 Sudoeste 0 -- -- 78
2020-12-01 19:00:00 6.1 3 Este 12 Nordeste 0 -- -- 69
2020-12-01 18:00:00 8.6 6 Norte 19 Norte 0 -- -- 59
2020-12-01 17:00:00 10.9 10 Norte 20 Norte 0 -- -- 58
2020-12-01 16:00:00 12.4 10 Norte 22 Norte 0 -- -- 54
2020-12-01 15:00:00 13.6 8 Norte 22 Norte 0 -- -- 57
2020-12-01 14:00:00 13.3 6 Norte 13 Norte 0 -- -- 52
2020-12-01 13:00:00 11.8 7 Nordeste 14 Nordeste 0 -- -- 59
2020-12-01 12:00:00 9.7 3 Nordeste 12 Norte 0 -- -- 66
2020-12-01 11:00:00 6.9 5 Oeste 9 Sudoeste 0 -- -- 76
2020-12-01 10:00:00 3.2 4 Sudeste 16 Sudoeste 0 -- -- 86
2020-12-01 09:00:00 0.1 10 Sudoeste 14 Oeste 0 -- -- 94
2020-12-01 08:00:00 0.2 7 Sudoeste 11 Oeste 0 -- -- 93
2020-12-01 07:00:00 0.4 4 Sudoeste 10 Sudoeste 0 -- -- 91
2020-12-01 06:00:00 1.6 9 Oeste 14 Sudoeste 0 -- -- 90
2020-12-01 05:00:00 1.7 8 Sudoeste 15 Sudoeste 0 -- -- 91
2020-12-01 04:00:00 1.2 4 Sur 18 Sur 0 -- -- 89
2020-12-01 03:00:00 2.1 12 Sudoeste 18 Sudoeste 0 -- -- 91
2020-12-01 02:00:00 3.4 12 Sudoeste 26 Sudoeste 0 -- -- 88
2020-12-01 01:00:00 2.8 12 Sudoeste 24 Sur 0 -- -- 88
2020-12-01 00:00:00 3.7 10 Sudoeste 18 Sudoeste 0 -- -- 88
2020-11-30 23:00:00 3.8 12 Sudoeste 21 Sudoeste 0 -- -- 87
2020-11-30 22:00:00 6.7 12 Sudoeste 25 Sur 0 -- -- 78
2020-11-30 21:00:00 7.4 15 Sudoeste 20 Sudoeste 0 -- -- 75
2020-11-30 20:00:00 8.4 11 Sur 19 Sur 0 -- -- 71
2020-11-30 19:00:00 9.9 5 Sur 17 Sur 0 -- -- 66
2020-11-30 18:00:00 11.9 3 Este 7 Norte 0 -- -- 67
2020-11-30 17:00:00 14.6 4 Norte 10 Norte 0 -- -- 58
2020-11-30 16:00:00 15.6 6 Norte 10 Nordeste 0 -- -- 55
2020-11-30 15:00:00 14.7 3 Nordeste 9 Oeste 0 -- -- 58
2020-11-30 14:00:00 13.4 6 Oeste 14 Oeste 0 -- -- 66
2020-11-30 13:00:00 11.7 8 Sudoeste 14 Sudoeste 0 -- -- 71
2020-11-30 12:00:00 10 9 Sudoeste 18 Sur 0 -- -- 79
2020-11-30 11:00:00 7.2 10 Sudoeste 18 Sudoeste 0 -- -- 88
2020-11-30 10:00:00 5.5 10 Sudoeste 16 Sudoeste 0 -- -- 96
2020-11-30 09:00:00 4.6 4 Sudoeste 9 Sudoeste 0 -- -- 96
2020-11-30 08:00:00 5.5 4 Sudoeste 5 Sudoeste 0 -- -- 96
2020-11-30 07:00:00 5.8 0 Calma 9 Nordeste 0 -- -- 95
2020-11-30 06:00:00 6.3 4 Nordeste 12 Norte 0 -- -- 95
2020-11-30 05:00:00 7.2 3 Oeste 8 Oeste 0 -- -- 89
2020-11-30 04:00:00 7.7 4 Oeste 11 Sur 0.2 -- -- 89
2020-11-30 03:00:00 7.7 4 Oeste 10 Sur 0 -- -- 89
2020-11-30 02:00:00 8.2 6 Sudoeste 13 Sur 0.2 -- -- 87
2020-11-30 01:00:00 8.9 6 Sur 19 Sur 0 -- -- 82
2020-11-30 00:00:00 8.7 8 Sur 20 Sur 0 -- -- 79
2020-11-29 23:00:00 8.8 3 Este 12 Sudoeste 0 -- -- 78
2020-11-29 22:00:00 9 3 Sudeste 14 Sur 0 -- -- 76
2020-11-29 21:00:00 8.4 5 Sur 12 Sur 0 -- -- 78
2020-11-29 20:00:00 8.7 12 Sur 21 Sur 0 -- -- 78
2020-11-29 19:00:00 9.4 0 Calma 12 Sur 0 -- -- 72
2020-11-29 18:00:00 9.8 10 Sur 16 Sur 0 -- -- 70
2020-11-29 17:00:00 10.2 10 Sur 22 Sudeste 0 -- -- 68
2020-11-29 16:00:00 10.6 15 Sur 23 Sur 0 -- -- 67
2020-11-29 15:00:00 11.9 15 Sur 24 Sur 0 -- -- 60
2020-11-29 14:00:00 10.5 19 Sur 35 Sur 0 -- -- 68
2020-11-29 13:00:00 11.6 25 Sur 38 Sur 0 -- -- 65
2020-11-29 12:00:00 11 24 Sur 38 Sur 0 -- -- 68
2020-11-29 11:00:00 9.9 18 Sur 32 Sur 0 -- -- 73
2020-11-29 10:00:00 8.8 13 Sur 21 Sur 0 -- -- 76
2020-11-29 09:00:00 6.8 11 Sur 17 Sur 0 -- -- 81
2020-11-29 08:00:00 6.9 6 Sur 12 Sur 0 -- -- 82
2020-11-29 07:00:00 7.4 6 Sudeste 21 Sur 0 -- -- 78
2020-11-29 06:00:00 7.8 13 Sur 19 Sudeste 0 -- -- 77
2020-11-29 05:00:00 7.6 8 Sudeste 23 Sur 0 -- -- 75
2020-11-29 04:00:00 4.7 7 Sudoeste 13 Sudoeste 0 -- -- 83
2020-11-29 03:00:00 6.8 6 Noroeste 22 Sur 0 -- -- 77
2020-11-29 02:00:00 7.3 9 Sudoeste 22 Sudoeste 0 -- -- 74
2020-11-29 01:00:00 7.7 12 Sudoeste 30 Sudoeste 0 -- -- 72
2020-11-29 00:00:00 8.4 19 Sudoeste 32 Sudoeste 0 -- -- 69
2020-11-28 23:00:00 6.4 6 Sur 24 Sudoeste 0 -- -- 78
2020-11-28 22:00:00 5 3 Sudoeste 11 Oeste 0 -- -- 88
2020-11-28 21:00:00 5.7 5 Sudoeste 13 Sudoeste 0 -- -- 85
2020-11-28 20:00:00 6.8 8 Sudoeste 25 Sudoeste 0 -- -- 81
2020-11-28 19:00:00 7.6 11 Sudoeste 22 Sudoeste 0 -- -- 81
2020-11-28 18:00:00 7.9 13 Sudoeste 26 Sur 0 -- -- 80
2020-11-28 17:00:00 8.3 5 Sudoeste 28 Sudoeste 0 -- -- 79
2020-11-28 16:00:00 8.6 13 Sudoeste 30 Sudoeste 0 -- -- 77
2020-11-28 15:00:00 9.1 18 Sudoeste 31 Sudoeste 0 -- -- 75
2020-11-28 14:00:00 9.8 20 Sudoeste 32 Oeste 0 -- -- 72
2020-11-28 13:00:00 11.2 10 Sudoeste 17 Oeste 0 -- -- 63
2020-11-28 12:00:00 10.4 6 Oeste 13 Oeste 0 -- -- 68
2020-11-28 11:00:00 8.1 0 Calma 9 Oeste 0 -- -- 83
2020-11-28 10:00:00 5.5 4 Oeste 6 Oeste 0 -- -- 92
2020-11-28 09:00:00 3.3 3 Sudoeste 10 Sudoeste 0 -- -- 94
2020-11-28 08:00:00 3.8 6 Sudoeste 10 Sudoeste 0 -- -- 94
2020-11-28 07:00:00 4.4 6 Sudoeste 10 Oeste 0 -- -- 96
2020-11-28 06:00:00 4.4 4 Sudoeste 9 Oeste 0 -- -- 95
2020-11-28 05:00:00 4.8 4 Oeste 6 Oeste 0 -- -- 94
2020-11-28 04:00:00 5 2 Este 8 Este 0 -- -- 93
2020-11-28 03:00:00 5.1 4 Sudeste 9 Oeste 0 -- -- 93
2020-11-28 02:00:00 4.9 3 Sur 6 Oeste 0 -- -- 93
2020-11-28 01:00:00 4.8 4 Noroeste 14 Sudoeste 0 -- -- 92
2020-11-28 00:00:00 4.9 4 Sudoeste 12 Oeste 0 -- -- 90
2020-11-27 23:00:00 4.8 6 Sudoeste 19 Sudoeste 0 -- -- 90
2020-11-27 22:00:00 5 5 Sudoeste 11 Oeste 0 -- -- 91
2020-11-27 21:00:00 5.6 5 Oeste 9 Oeste 0 -- -- 88
2020-11-27 20:00:00 6.6 3 Sudoeste 8 Sur 0 -- -- 83
2020-11-27 19:00:00 7.7 2 Oeste 17 Este 0 -- -- 79
2020-11-27 18:00:00 8.1 3 Sudeste 8 Sudoeste 0 -- -- 78
2020-11-27 17:00:00 8.4 5 Sur 20 Sur 0 -- -- 77
2020-11-27 16:00:00 8.3 12 Sur 33 Este 0 -- -- 78
2020-11-27 15:00:00 8.8 19 Este 31 Este 0.2 -- -- 74
2020-11-27 14:00:00 9.4 17 Este 31 Este 0 -- -- 73
2020-11-27 13:00:00 10 13 Nordeste 43 Este 0 -- -- 71
2020-11-27 12:00:00 8.6 6 Sur 17 Este 0 -- -- 86
2020-11-27 11:00:00 7.2 6 Oeste 10 Oeste 0 -- -- 95
2020-11-27 10:00:00 6 5 Oeste 8 Oeste 1 -- -- 96
2020-11-27 09:00:00 5.4 4 Oeste 8 Oeste 0.2 -- -- 96
2020-11-27 08:00:00 5.3 3 Sudoeste 8 Oeste 0 -- -- 96
2020-11-27 07:00:00 5.1 3 Sudoeste 5 Sudoeste 0 -- -- 95
2020-11-27 06:00:00 5.1 2 Noroeste 5 Nordeste 0.2 -- -- 95
2020-11-27 05:00:00 5.8 3 Nordeste 9 Norte 0.2 -- -- 95
2020-11-27 04:00:00 6 3 Oeste 8 Sudeste 0 -- -- 95
2020-11-27 03:00:00 6.2 0 Calma 10 Norte 0 -- -- 94
2020-11-27 02:00:00 6.2 4 Norte 12 Norte 0 -- -- 94
2020-11-27 01:00:00 6.4 6 Nordeste 14 Nordeste 0 -- -- 93
2020-11-27 00:00:00 6.5 3 Norte 13 Nordeste 0.4 -- -- 91
2020-11-26 23:00:00 6.6 2 Sudeste 10 Nordeste 0.2 -- -- 89
2020-11-26 22:00:00 7 4 Noroeste 19 Sur 1.2 -- -- 89
2020-11-26 21:00:00 7.4 11 Sur 23 Sur 0.6 -- -- 86
2020-11-26 20:00:00 7.2 9 Sudeste 20 Sudeste 0.4 -- -- 88
2020-11-26 19:00:00 7.5 4 Noroeste 14 Sudeste 1 -- -- 88
2020-11-26 18:00:00 7.9 5 Sudeste 31 Sudeste 0.8 -- -- 85
2020-11-26 17:00:00 8.5 20 Sur 30 Sur 0.6 -- -- 81
2020-11-26 16:00:00 7.6 7 Este 12 Este 0.8 -- -- 91
2020-11-26 15:00:00 7.3 2 Sudeste 8 Sudoeste 1.8 -- -- 89
2020-11-26 14:00:00 7.4 5 Sudoeste 12 Sudoeste 1.2 -- -- 89
2020-11-26 13:00:00 7.9 3 Oeste 18 Sur 0.6 -- -- 83
2020-11-26 12:00:00 7.5 10 Sur 28 Sudeste 0.6 -- -- 80
2020-11-26 11:00:00 7.3 20 Sudeste 37 Este 0.6 -- -- 79
2020-11-26 10:00:00 7.3 6 Nordeste 15 Este 0.2 -- -- 78
2020-11-26 09:00:00 6.9 8 Sur 48 Sur 0.6 -- -- 84
2020-11-26 08:00:00 7.9 28 Sur 55 Sur 0 -- -- 80
2020-11-26 07:00:00 8.3 15 Sur 39 Sur 0.2 -- -- 79
2020-11-26 06:00:00 7.8 6 Noroeste 15 Sur 0.2 -- -- 84
2020-11-26 05:00:00 7.6 3 Noroeste 23 Sudeste 0 -- -- 83
2020-11-26 04:00:00 7.4 7 Oeste 14 Sur 0.4 -- -- 82
2020-11-26 03:00:00 7.4 5 Oeste 13 Sur 1.4 -- -- 85
2020-11-26 02:00:00 7.5 9 Sudeste 20 Sur 0.4 -- -- 85
2020-11-26 01:00:00 7.9 14 Sur 26 Sudoeste 0.2 -- -- 84
2020-11-26 00:00:00 8 10 Sudoeste 23 Sur 0.4 -- -- 85
2020-11-25 23:00:00 8.3 14 Sur 34 Sur 0.4 -- -- 84
2020-11-25 22:00:00 8.8 22 Sur 33 Sur 0 -- -- 80
2020-11-25 21:00:00 8.9 23 Sur 35 Sur 0 -- -- 76
2020-11-25 20:00:00 9.1 28 Sur 50 Sur 0 -- -- 74
2020-11-25 19:00:00 8.2 28 Sur 50 Sudeste 0.2 -- -- 83
2020-11-25 18:00:00 8.4 13 Sur 38 Sur 0 -- -- 80
2020-11-25 17:00:00 8.6 27 Sur 50 Sudoeste 0.2 -- -- 77
2020-11-25 16:00:00 8.6 21 Sur 37 Sur 0 -- -- 77
2020-11-25 15:00:00 8.5 23 Sur 36 Sur 0.2 -- -- 75
2020-11-25 14:00:00 8.9 17 Sur 36 Sudoeste 0 -- -- 77
2020-11-25 13:00:00 10.4 25 Sur 39 Sur 0 -- -- 66
2020-11-25 12:00:00 9.1 22 Sur 33 Sur 0 -- -- 69
2020-11-25 11:00:00 8.8 10 Sur 32 Sur 0 -- -- 73
2020-11-25 10:00:00 8.5 21 Sur 35 Sur 0 -- -- 74
2020-11-25 09:00:00 8.6 23 Sudoeste 40 Sudoeste 0 -- -- 70
2020-11-25 08:00:00 6.9 11 Sur 26 Sur 0 -- -- 73
2020-11-25 07:00:00 5.4 8 Sudeste 23 Sur 0 -- -- 74
2020-11-25 06:00:00 5 10 Sur 23 Sudoeste 0 -- -- 79
2020-11-25 05:00:00 5.5 16 Sur 26 Sudoeste 0 -- -- 79
2020-11-25 04:00:00 4.7 14 Sur 24 Sur 0 -- -- 77
2020-11-25 03:00:00 4.2 15 Sur 25 Sur -- -- -- 77
2020-11-25 02:00:00 5.7 18 Sur 26 Sur 0 -- -- 72
2020-11-25 01:00:00 4.5 13 Sur 22 Sur 0 -- -- 80
2020-11-25 00:00:00 3.6 12 Sudeste 18 Sudeste 0 -- -- 81
2020-11-24 23:00:00 3.2 11 Sudoeste 22 Sudoeste 0 -- -- 83
2020-11-24 22:00:00 2.6 6 Este 11 Oeste 0 -- -- 83
2020-11-24 21:00:00 4.3 3 Sudoeste 21 Este 0 -- -- 78
2020-11-24 20:00:00 6.3 4 Oeste 17 Oeste 0 -- -- 75
2020-11-24 19:00:00 7 7 Sudoeste 28 Sudoeste 0 -- -- 70
2020-11-24 18:00:00 8.5 16 Oeste 37 Sudoeste 0 -- -- 62
2020-11-24 17:00:00 11 16 Oeste 33 Oeste 0 -- -- 60
2020-11-24 16:00:00 12 16 Oeste 28 Oeste 0 -- -- 58
2020-11-24 15:00:00 12.9 9 Noroeste 19 Norte 0 -- -- 55
2020-11-24 14:00:00 12.8 9 Norte 22 Norte 0 -- -- 55
2020-11-24 13:00:00 12 8 Norte 15 Nordeste 0 -- -- 56
2020-11-24 12:00:00 10.2 6 Norte 13 Norte 0 -- -- 59
2020-11-24 11:00:00 6.9 2 Nordeste 9 Noroeste 0 -- -- 76
2020-11-24 10:00:00 1.6 5 Sudoeste 12 Sudoeste 0 -- -- 87
2020-11-24 09:00:00 -0.3 5 Oeste 9 Sudoeste 0 -- -- 89
2020-11-24 08:00:00 -0.1 5 Oeste 8 Oeste 0 -- -- 90
2020-11-24 07:00:00 -1.1 0 Calma 6 Sudoeste 0 -- -- 89
2020-11-24 06:00:00 -1.2 3 Sudoeste 6 Sudoeste 0 -- -- 89
2020-11-24 05:00:00 -0.4 0 Calma 16 Sudoeste 0 -- -- 87
2020-11-24 04:00:00 0.3 14 Sudoeste 19 Sudoeste 0 -- -- 90
2020-11-24 03:00:00 -0.2 4 Sudoeste 13 Sudoeste 0 -- -- 87
2020-11-24 02:00:00 0.8 9 Sudoeste 14 Sudoeste 0 -- -- 87
2020-11-24 01:00:00 1.5 9 Oeste 17 Sudoeste 0 -- -- 84
2020-11-24 00:00:00 1.4 6 Oeste 10 Oeste 0 -- -- 86
2020-11-23 23:00:00 2.6 6 Sudoeste 12 Oeste 0 -- -- 80
2020-11-23 22:00:00 3.4 5 Oeste 13 Sudoeste 0 -- -- 78
2020-11-23 21:00:00 4 7 Sudoeste 11 Sudoeste 0 -- -- 76
2020-11-23 20:00:00 5.7 7 Sudoeste 9 Sudoeste 0 -- -- 72
2020-11-23 19:00:00 8.7 2 Sudoeste 4 Nordeste 0 -- -- 61
2020-11-23 18:00:00 12.4 4 Norte 11 Norte 0 -- -- 50
2020-11-23 17:00:00 14.7 5 Norte 14 Norte 0 -- -- 43
2020-11-23 16:00:00 15.6 6 Norte 15 Norte 0 -- -- 36
2020-11-23 15:00:00 15.8 9 Norte 19 Nordeste 0 -- -- 36
2020-11-23 14:00:00 15.2 9 Nordeste 17 Norte 0 -- -- 42
2020-11-23 13:00:00 14.8 7 Norte 18 Norte 0 -- -- 43
2020-11-23 12:00:00 13.3 3 Sudoeste 9 Sudoeste 0 -- -- 42
2020-11-23 11:00:00 9.1 7 Sudoeste 12 Sudoeste 0 -- -- 54
2020-11-23 10:00:00 3.8 6 Sudoeste 20 Sudoeste 0 -- -- 72
2020-11-23 09:00:00 -0.3 10 Sudoeste 15 Sudoeste 0 -- -- 86
2020-11-23 08:00:00 0 10 Oeste 22 Sudoeste 0 -- -- 83
2020-11-23 07:00:00 -0.5 9 Sudoeste 14 Sudoeste 0 -- -- 85
2020-11-23 06:00:00 -0.2 11 Sudoeste 14 Oeste 0 -- -- 86
2020-11-23 05:00:00 -1 6 Oeste 9 Oeste 0 -- -- 88
2020-11-23 04:00:00 0.4 8 Oeste 15 Oeste 0 -- -- 84
2020-11-23 03:00:00 0.5 12 Sudoeste 18 Sudoeste 0 -- -- 85
2020-11-23 02:00:00 1 11 Sudoeste 15 Sudoeste 0 -- -- 84
2020-11-23 01:00:00 0.7 4 Oeste 14 Sudoeste 0 -- -- 83
2020-11-23 00:00:00 1.5 9 Sudoeste 14 Sudoeste 0 -- -- 83
2020-11-22 23:00:00 2.3 4 Sudoeste 10 Oeste 0 -- -- 78
2020-11-22 22:00:00 3.4 4 Sudoeste 14 Sudoeste 0 -- -- 74
2020-11-22 21:00:00 4.6 8 Sudoeste 12 Sudoeste 0 -- -- 71
2020-11-22 20:00:00 6.3 0 Calma -- -- 0 -- -- 66
2020-11-22 19:00:00 8.9 0 Calma 6 Este 0 -- -- 57
2020-11-22 18:00:00 13.4 5 Norte 11 Norte 0 -- -- 46
2020-11-22 17:00:00 16 6 Norte 14 Norte 0 -- -- 35
2020-11-22 16:00:00 16.6 6 Norte 16 Norte 0 -- -- 35
2020-11-22 15:00:00 16.4 7 Norte 17 Norte 0 -- -- 35
2020-11-22 14:00:00 15.5 8 Norte 17 Norte 0 -- -- 39
2020-11-22 13:00:00 14.3 5 Nordeste 13 Norte 0 -- -- 47
2020-11-22 12:00:00 12.3 0 Calma 5 Oeste 0 -- -- 53
2020-11-22 11:00:00 8.6 3 Oeste 7 Sudoeste 0 -- -- 60
2020-11-22 10:00:00 4 4 Sudoeste 9 Sudoeste 0 -- -- 76
2020-11-22 09:00:00 -0.2 4 Sur 10 Oeste 0 -- -- 86
2020-11-22 08:00:00 -0.5 5 Sudoeste 13 Sudoeste 0 -- -- 86
2020-11-22 07:00:00 -0.1 6 Oeste 12 Sudoeste 0 -- -- 86
2020-11-22 06:00:00 0.8 9 Sudoeste 13 Sudoeste 0 -- -- 83
2020-11-22 05:00:00 0.8 8 Oeste 15 Sudoeste 0 -- -- 83
2020-11-22 04:00:00 1.9 12 Sudoeste 18 Sur 0 -- -- 78
2020-11-22 03:00:00 2.4 13 Sudoeste 23 Sudoeste 0 -- -- 77
2020-11-22 02:00:00 3.3 8 Sudoeste 16 Oeste 0 -- -- 74
2020-11-22 01:00:00 2.7 10 Oeste 14 Sudoeste 0 -- -- 78
2020-11-22 00:00:00 3.1 9 Oeste 13 Oeste 0 -- -- 78
2020-11-21 23:00:00 4 9 Sudoeste 18 Sudoeste 0 -- -- 75
2020-11-21 22:00:00 4.6 9 Sudoeste 22 Sudoeste 0 -- -- 74
2020-11-21 21:00:00 6.3 15 Sudoeste 23 Sudoeste 0 -- -- 70
2020-11-21 20:00:00 6.6 10 Sudoeste 14 Oeste 0 -- -- 72
2020-11-21 19:00:00 9 2 Sudoeste 9 Norte 0 -- -- 65
2020-11-21 18:00:00 12.4 2 Norte 14 Norte 0 -- -- 56
2020-11-21 17:00:00 15.2 7 Norte 18 Norte 0 -- -- 47
2020-11-21 16:00:00 16.2 9 Norte 16 Norte 0 -- -- 42
2020-11-21 15:00:00 16.2 9 Norte 17 Norte 0 -- -- 41
2020-11-21 14:00:00 15.4 7 Norte 17 Norte 0 -- -- 41
2020-11-21 13:00:00 13.9 9 Norte 14 Norte 0 -- -- 42
2020-11-21 12:00:00 12.4 5 Norte 11 Nordeste 0 -- -- 44
2020-11-21 11:00:00 8.8 4 Norte 9 Sudoeste 0 -- -- 52
2020-11-21 10:00:00 5.1 8 Oeste 20 Sudoeste 0 -- -- 59
2020-11-21 09:00:00 1.2 9 Sudoeste 19 Sudoeste 0 -- -- 71
2020-11-21 08:00:00 -0.1 9 Sudoeste 14 Sudoeste 0 -- -- 76
2020-11-21 07:00:00 -0.2 2 Oeste 10 Oeste 0 -- -- 77
2020-11-21 06:00:00 -0.3 9 Sudoeste 12 Sudoeste 0 -- -- 82
2020-11-21 05:00:00 0.4 3 Nordeste 14 Sudoeste 0 -- -- 75
2020-11-21 04:00:00 1 4 Sudoeste 13 Oeste 0 -- -- 76
2020-11-21 03:00:00 1.6 4 Sudoeste 32 Sur 0 -- -- 74
2020-11-21 02:00:00 1.4 12 Sudoeste 16 Sudoeste 0 -- -- 76
2020-11-21 01:00:00 2.1 13 Sudoeste 17 Sudoeste 0 -- -- 73
2020-11-21 00:00:00 2.8 9 Sudoeste 19 Sur 0 -- -- 70
2020-11-20 23:00:00 5 14 Sudoeste 28 Sudoeste 0 -- -- 60
2020-11-20 22:00:00 3.7 9 Sudoeste 13 Sudoeste 0 -- -- 68
2020-11-20 21:00:00 4.9 4 Sudoeste 12 Sudoeste 0 -- -- 65
2020-11-20 20:00:00 6.9 8 Sudoeste 12 Oeste 0 -- -- 60
2020-11-20 19:00:00 8.9 0 Calma 9 Noroeste 0 -- -- 54
2020-11-20 18:00:00 13.9 0 Calma 13 Noroeste 0 -- -- 34
2020-11-20 17:00:00 15.6 10 Noroeste 21 Norte 0 -- -- 32
2020-11-20 16:00:00 16.7 9 Norte 21 Norte 0 -- -- 34
2020-11-20 15:00:00 16.4 7 Norte 19 Norte 0 -- -- 39
2020-11-20 14:00:00 15.2 7 Norte 19 Norte 0 -- -- 48
2020-11-20 13:00:00 14.3 9 Norte 18 Norte 0 -- -- 50
2020-11-20 12:00:00 12.1 3 Nordeste 13 Noroeste 0 -- -- 65
2020-11-20 11:00:00 8.6 0 Calma 17 Sudoeste 0 -- -- 74
2020-11-20 10:00:00 4.5 0 Calma 5 Este 0 -- -- 87
2020-11-20 09:00:00 1.6 0 Calma 14 Sudoeste 0 -- -- 95
2020-11-20 08:00:00 1.1 8 Oeste 10 Sudoeste 0 -- -- 94
2020-11-20 07:00:00 2.2 3 Este 15 Sudoeste 0 -- -- 88
2020-11-20 06:00:00 1.8 6 Oeste 11 Sudoeste 0 -- -- 92
2020-11-20 05:00:00 2.5 6 Sudoeste 14 Sudoeste 0 -- -- 92
2020-11-20 04:00:00 2.8 5 Sudoeste 10 Sudoeste 0 -- -- 94
2020-11-20 03:00:00 3 3 Nordeste 23 Sudoeste 0 -- -- 92
2020-11-20 02:00:00 3.8 5 Sudoeste 11 Oeste 0 -- -- 92
2020-11-20 01:00:00 4.2 8 Sudoeste 14 Sur 0 -- -- 90
2020-11-20 00:00:00 5.9 11 Sudoeste 19 Sudoeste 0 -- -- 89
2020-11-19 23:00:00 6 4 Oeste 13 Sudoeste 0 -- -- 89
2020-11-19 22:00:00 6.3 0 Calma 0 Calma 0 -- -- 87
2020-11-19 21:00:00 8.5 0 Calma 2 Este 0 -- -- 80
2020-11-19 20:00:00 10 0 Calma 6 Este 0 -- -- 74
2020-11-19 19:00:00 14 5 Norte 11 Norte 0 -- -- 65
2020-11-19 18:00:00 16.3 5 Norte 10 Noroeste 0 -- -- 56
2020-11-19 17:00:00 18.9 5 Norte 18 Norte 0 -- -- 47
2020-11-19 16:00:00 19.5 9 Norte 21 Norte 0 -- -- 45
2020-11-19 15:00:00 19.7 6 Norte 26 Norte 0 -- -- 46
2020-11-19 14:00:00 19.7 2 Sudoeste 8 Sudoeste 0 -- -- 47
2020-11-19 13:00:00 17.9 3 Norte 12 Norte 0 -- -- 50
2020-11-19 12:00:00 15.7 4 Este 10 Este 0 -- -- 62
2020-11-19 11:00:00 11.6 0 Calma 6 Este 0 -- -- 68
2020-11-19 10:00:00 8.2 3 Sur 9 Oeste 0 -- -- 80
2020-11-19 09:00:00 4.7 3 Sudoeste 18 Sudoeste 0 -- -- 86
2020-11-19 08:00:00 5 11 Oeste 15 Sudoeste 0 -- -- 86
2020-11-19 07:00:00 4.1 7 Oeste 13 Sudoeste 0 -- -- 89
2020-11-19 06:00:00 4.8 8 Sudoeste 12 Sudoeste 0 -- -- 88
2020-11-19 05:00:00 4.4 8 Sudoeste 12 Sudoeste 0 -- -- 89
2020-11-19 04:00:00 5.8 8 Sudoeste 15 Sudoeste 0 -- -- 86
2020-11-19 03:00:00 5.3 9 Sudoeste 15 Oeste 0 -- -- 89
2020-11-19 02:00:00 6.4 8 Sudoeste 14 Sudoeste 0 -- -- 85
2020-11-19 01:00:00 6.7 6 Oeste 17 Sudoeste 0 -- -- 84
2020-11-19 00:00:00 8.2 8 Sudoeste 14 Sudoeste 0 -- -- 78
2020-11-18 23:00:00 7.7 9 Sudoeste 15 Sudoeste 0 -- -- 82
2020-11-18 22:00:00 9.1 8 Sudoeste 15 Sudoeste 0 -- -- 76
2020-11-18 21:00:00 9.6 6 Sudoeste 11 Oeste 0 -- -- 74
2020-11-18 20:00:00 12 3 Sudoeste 8 Oeste 0 -- -- 75
2020-11-18 19:00:00 15.4 6 Norte 10 Norte 0 -- -- 64
2020-11-18 18:00:00 17.2 6 Norte 16 Norte 0 -- -- 61
2020-11-18 17:00:00 19.2 10 Norte 16 Norte 0 -- -- 52
2020-11-18 16:00:00 21.4 4 Norte 16 Noroeste 0 -- -- 45
2020-11-18 15:00:00 22 8 Oeste 18 Sudoeste 0 -- -- 34
2020-11-18 14:00:00 21.5 5 Nordeste 15 Norte 0 -- -- 35
2020-11-18 13:00:00 19.8 6 Norte 13 Norte 0 -- -- 42
2020-11-18 12:00:00 16.7 3 Nordeste 6 Norte 0 -- -- 47
2020-11-18 11:00:00 13.6 0 Calma 5 Este 0 -- -- 61
2020-11-18 10:00:00 8.3 0 Calma 8 Sudoeste 0 -- -- 73
2020-11-18 09:00:00 3.9 3 Sudoeste 8 Sudoeste 0 -- -- 82
2020-11-18 08:00:00 4.5 5 Sudoeste 11 Sudoeste 0 -- -- 76
2020-11-18 07:00:00 5.7 9 Oeste 13 Oeste 0 -- -- 74
2020-11-18 06:00:00 6 5 Oeste 12 Sudoeste 0 -- -- 72
2020-11-18 05:00:00 5.8 7 Oeste 12 Oeste 0 -- -- 74
2020-11-18 04:00:00 5.6 6 Sudoeste 12 Oeste 0 -- -- 76
2020-11-18 03:00:00 5.9 0 Calma 16 Sudoeste 0 -- -- 75
2020-11-18 02:00:00 6.5 9 Sudoeste 20 Sur 0 -- -- 73
2020-11-18 01:00:00 7.2 9 Sudoeste 17 Sudoeste 0 -- -- 71
2020-11-18 00:00:00 6.1 8 Sudoeste 14 Sudoeste 0 -- -- 77
2020-11-17 23:00:00 7.7 7 Sudoeste 13 Sur 0 -- -- 71
2020-11-17 22:00:00 8.4 9 Sudoeste 13 Sudoeste 0 -- -- 70
2020-11-17 21:00:00 8.7 6 Sudoeste 9 Sudoeste 0 -- -- 72
2020-11-17 20:00:00 13.2 10 Sudoeste 24 Oeste 0 -- -- 63
2020-11-17 19:00:00 14.3 16 Oeste 28 Oeste 0 -- -- 61
2020-11-17 18:00:00 15.4 13 Oeste 27 Oeste 0 -- -- 55
2020-11-17 17:00:00 17.7 15 Oeste 26 Oeste 0 -- -- 42
2020-11-17 16:00:00 19.3 12 Sudoeste 32 Oeste 0 -- -- 37
2020-11-17 15:00:00 19.3 21 Oeste 31 Oeste 0 -- -- 37
2020-11-17 14:00:00 20.4 13 Oeste 21 Oeste 0 -- -- 35
2020-11-17 13:00:00 18.4 5 Norte 10 Norte 0 -- -- 47
2020-11-17 12:00:00 16 4 Este 12 Sudoeste 0 -- -- 56
2020-11-17 11:00:00 11.9 10 Sudoeste 16 Sudoeste 0 -- -- 63
2020-11-17 10:00:00 7.2 6 Sudoeste 17 Sudoeste 0 -- -- 82
2020-11-17 09:00:00 3.5 13 Sudoeste 18 Sudoeste 0 -- -- 87
2020-11-17 08:00:00 2.3 12 Sudoeste 19 Sudoeste 0 -- -- 91
2020-11-17 07:00:00 2.1 6 Sudoeste 14 Sudoeste 0 -- -- 92
2020-11-17 06:00:00 2.5 8 Sudoeste 17 Oeste 0 -- -- 89
2020-11-17 05:00:00 3.5 9 Sudoeste 14 Sudoeste 0 -- -- 87
2020-11-17 04:00:00 3.3 11 Sudoeste 17 Sudoeste 0 -- -- 91
2020-11-17 03:00:00 3.7 10 Sudoeste 17 Sudoeste 0 -- -- 92
2020-11-17 02:00:00 4.2 9 Sudoeste 14 Sudoeste 0 -- -- 91
2020-11-17 01:00:00 4.6 8 Oeste 15 Sudoeste 0 -- -- 92
2020-11-17 00:00:00 5.1 6 Oeste 13 Sudoeste 0 -- -- 89
2020-11-16 23:00:00 5.5 10 Sudoeste 14 Sudoeste 0 -- -- 92
2020-11-16 22:00:00 6.6 7 Sudoeste 17 Sudoeste 0 -- -- 89
2020-11-16 21:00:00 7.4 4 Oeste 9 Oeste 0 -- -- 87
2020-11-16 20:00:00 8.9 5 Oeste 8 Oeste 0 -- -- 83
2020-11-16 19:00:00 11.4 2 Noroeste 8 Norte 0 -- -- 71
2020-11-16 18:00:00 14.5 5 Norte 14 Norte 0 -- -- 61
2020-11-16 17:00:00 16.4 6 Norte 16 Norte 0 -- -- 57
2020-11-16 16:00:00 17.4 8 Norte 15 Norte 0 -- -- 53
2020-11-16 15:00:00 17.5 3 Norte 17 Nordeste 0 -- -- 51
2020-11-16 14:00:00 17.3 8 Nordeste 16 Norte 0 -- -- 47
2020-11-16 13:00:00 16.8 7 Norte 13 Noroeste 0 -- -- 45
2020-11-16 12:00:00 14.6 6 Sudoeste 12 Sudoeste 0 -- -- 72
2020-11-16 11:00:00 11.9 7 Oeste 12 Sudoeste 0 -- -- 89
2020-11-16 10:00:00 8.5 3 Oeste 5 Oeste 0 -- -- 95
2020-11-16 09:00:00 7.6 3 Oeste 5 Sudoeste 0 -- -- 94
2020-11-16 08:00:00 8.4 0 Calma 6 Sudoeste 0 -- -- 94
2020-11-16 07:00:00 8.5 3 Sudoeste 10 Oeste 0 -- -- 94
2020-11-16 06:00:00 8.4 3 Sudoeste 8 Sudeste 0 -- -- 94
2020-11-16 05:00:00 8.7 3 Sudeste 5 Noroeste 0 -- -- 91
2020-11-16 04:00:00 10 3 Este 8 Norte 0 -- -- 90
2020-11-16 03:00:00 11.7 5 Nordeste 10 Nordeste 0 -- -- 89
2020-11-16 02:00:00 12.6 4 Nordeste 12 Noroeste 0 -- -- 86
2020-11-16 01:00:00 13.5 10 Sudoeste 18 Sudoeste 0 -- -- 85
2020-11-16 00:00:00 13.7 4 Norte 17 Sur 0 -- -- 88
2020-11-15 23:00:00 14 6 Oeste 18 Oeste 0 -- -- 87
2020-11-15 22:00:00 14.4 10 Oeste 24 Sudoeste 0 -- -- 82
2020-11-15 21:00:00 14.3 5 Sur 13 Sur 0 -- -- 81
2020-11-15 20:00:00 13.9 3 Nordeste 12 Sudoeste 0 -- -- 84
2020-11-15 19:00:00 13.7 7 Sudoeste 14 Oeste 0 -- -- 87
2020-11-15 18:00:00 13.7 2 Norte 14 Sudoeste 0 -- -- 85
2020-11-15 17:00:00 14 6 Sudoeste 22 Sudoeste 0 -- -- 86
2020-11-15 16:00:00 14.2 9 Sudoeste 25 Sudoeste 0 -- -- 85
2020-11-15 15:00:00 14 8 Sudoeste 28 Sur 0 -- -- 85
2020-11-15 14:00:00 14 19 Sudoeste 37 Sudoeste 0 -- -- 85
2020-11-15 13:00:00 14.3 21 Sudoeste 35 Sudoeste 0 -- -- 84
2020-11-15 12:00:00 14.4 21 Sudoeste 33 Sudoeste 0.2 -- -- 87
2020-11-15 11:00:00 14.1 21 Sudoeste 32 Sudoeste 0 -- -- 88
2020-11-15 10:00:00 12.9 21 Sudoeste 33 Sudoeste 0 -- -- 91
2020-11-15 09:00:00 12.2 14 Sudoeste 29 Sudoeste 0 -- -- 93
2020-11-15 08:00:00 12.1 10 Oeste 30 Sudoeste 0 -- -- 93
2020-11-15 07:00:00 12.1 17 Sudoeste 31 Sudoeste 0.2 -- -- 91
2020-11-15 06:00:00 12.2 15 Oeste 28 Sudoeste 0 -- -- 90
2020-11-15 05:00:00 12.1 8 Noroeste 28 Sudoeste 0 -- -- 88
2020-11-15 04:00:00 11.1 10 Sudoeste 30 Sur 0 -- -- 85
2020-11-15 03:00:00 11.2 15 Sudoeste 33 Sudoeste -- -- -- 90
2020-11-15 02:00:00 10 14 Sudoeste 23 Sudoeste 0 -- -- 89
2020-11-15 01:00:00 10.7 9 Oeste 25 Oeste 0 -- -- 90
2020-11-15 00:00:00 9 7 Sudoeste 18 Sudoeste 0 -- -- 91
2020-11-14 23:00:00 8.6 5 Oeste 13 Sudoeste 0 -- -- 92
2020-11-14 22:00:00 8.9 6 Sudoeste 26 Sudoeste 0 -- -- 88
2020-11-14 21:00:00 10.6 13 Sudoeste 31 Oeste 0 -- -- 91
2020-11-14 20:00:00 10.9 14 Oeste 26 Oeste 0 -- -- 91
2020-11-14 19:00:00 11.6 13 Oeste 23 Sudoeste 0 -- -- 84
2020-11-14 18:00:00 11.6 17 Oeste 39 Sudoeste 0 -- -- 85
2020-11-14 17:00:00 13.6 22 Sudoeste 32 Sudoeste 0 -- -- 78
2020-11-14 16:00:00 14.4 18 Sudoeste 36 Sudoeste 0 -- -- 73
2020-11-14 15:00:00 14.1 25 Sudoeste 37 Sudoeste 0 -- -- 75
2020-11-14 14:00:00 13.9 19 Sudoeste 32 Oeste 0 -- -- 72
2020-11-14 13:00:00 14.4 18 Sudoeste 39 Sudoeste 0 -- -- 72
2020-11-14 12:00:00 12.7 18 Sudoeste 29 Oeste 0 -- -- 77
2020-11-14 11:00:00 11.5 5 Sudoeste 14 Sur 0 -- -- 83
2020-11-14 10:00:00 9.9 8 Sur 16 Sudoeste 0 -- -- 88
2020-11-14 09:00:00 8.8 6 Sur 15 Sur 0 -- -- 90
2020-11-14 08:00:00 8.5 4 Oeste 16 Sudoeste 1 -- -- 90
2020-11-14 07:00:00 9 9 Sudoeste 18 Sudoeste 0.4 -- -- 88
2020-11-14 06:00:00 11 14 Sur 22 Sudoeste 0 -- -- 80
2020-11-14 05:00:00 11.3 14 Sudoeste 28 Sudoeste 0 -- -- 73
2020-11-14 04:00:00 11.4 13 Sur 33 Sudoeste 0 -- -- 72
2020-11-14 03:00:00 10.6 7 Oeste 18 Sudoeste 0 -- -- 75
2020-11-14 02:00:00 11.4 10 Sudoeste 34 Sudoeste 0 -- -- 70
2020-11-14 01:00:00 11.4 14 Sudoeste 27 Sur 0 -- -- 70
2020-11-14 00:00:00 10.1 10 Sudeste 19 Sudeste 0 -- -- 69
2020-11-13 23:00:00 9.9 4 Sur 17 Sudeste 0 -- -- 70
2020-11-13 22:00:00 9.5 6 Sudoeste 12 Sudoeste 0 -- -- 73
2020-11-13 21:00:00 9.1 8 Sur 17 Sudoeste 0 -- -- 73
2020-11-13 20:00:00 9.1 0 Calma 14 Oeste 0 -- -- 74
2020-11-13 19:00:00 10.3 10 Oeste 15 Oeste 0 -- -- 70
2020-11-13 18:00:00 11.7 5 Noroeste 20 Sudoeste 0 -- -- 63
2020-11-13 17:00:00 12.8 7 Oeste 15 Oeste 0 -- -- 57
2020-11-13 16:00:00 12.6 11 Oeste 30 Oeste 0 -- -- 58
2020-11-13 15:00:00 12.9 10 Oeste 26 Sudoeste 0 -- -- 60
2020-11-13 14:00:00 12.9 9 Oeste 18 Oeste 0 -- -- 56
2020-11-13 13:00:00 12.1 3 Oeste 10 Oeste 0 -- -- 60
2020-11-13 12:00:00 11.4 4 Sudoeste 10 Oeste 0 -- -- 62
2020-11-13 11:00:00 9.1 6 Sudoeste 10 Sudoeste 0 -- -- 73
2020-11-13 10:00:00 6 5 Sudoeste 13 Sudoeste 0 -- -- 83
2020-11-13 09:00:00 4.4 6 Sudoeste 18 Sudoeste 0 -- -- 87
2020-11-13 08:00:00 3.9 12 Sudoeste 15 Sudoeste 0 -- -- 87
2020-11-13 07:00:00 4.3 10 Sudoeste 18 Sudoeste 0 -- -- 86
2020-11-13 06:00:00 4.3 10 Sudoeste 13 Sudoeste 0 -- -- 86
2020-11-13 05:00:00 4.3 9 Sudoeste 13 Sudoeste 0 -- -- 86
2020-11-13 04:00:00 4.5 7 Oeste 9 Oeste 0 -- -- 87
2020-11-13 03:00:00 4.8 3 Sudoeste 13 Sudoeste 0 -- -- 85
2020-11-13 02:00:00 5.4 7 Sudoeste 12 Sudoeste 0 -- -- 86
2020-11-13 01:00:00 5.5 8 Sudoeste 11 Sudoeste 0 -- -- 85
2020-11-13 00:00:00 5.6 4 Oeste 8 Oeste 0 -- -- 89
2020-11-12 23:00:00 6.1 3 Sudoeste 8 Sudoeste 0 -- -- 86
2020-11-12 22:00:00 6.3 3 Sur 6 Sudoeste 0 -- -- 86
2020-11-12 21:00:00 7.2 4 Sudoeste 9 Sudoeste 0 -- -- 82
2020-11-12 20:00:00 8.5 6 Sudoeste 13 Oeste 0 -- -- 81
2020-11-12 19:00:00 10.5 2 Oeste 9 Norte 0 -- -- 75
2020-11-12 18:00:00 12.5 3 Norte 11 Norte 0 -- -- 66
2020-11-12 17:00:00 14.4 6 Norte 12 Norte 0 -- -- 60
2020-11-12 16:00:00 14.9 6 Nordeste 10 Norte 0 -- -- 54
2020-11-12 15:00:00 14.9 5 Nordeste 12 Norte 0 -- -- 47
2020-11-12 14:00:00 13.9 5 Norte 9 Norte 0 -- -- 52
2020-11-12 13:00:00 13.8 4 Noroeste 8 Oeste 0 -- -- 51
2020-11-12 12:00:00 10.2 4 Sudoeste 6 Sudoeste 0 -- -- 70
2020-11-12 11:00:00 8.6 3 Sudoeste 10 Sudoeste 0 -- -- 76
2020-11-12 10:00:00 6.7 10 Sudoeste 17 Sudoeste 0 -- -- 77
2020-11-12 09:00:00 4.4 8 Sudoeste 12 Sudoeste 0 -- -- 88
2020-11-12 08:00:00 4.6 8 Sudoeste 13 Sudoeste 0 -- -- 85
2020-11-12 07:00:00 5.2 7 Sudoeste 10 Sudoeste 0 -- -- 83
2020-11-12 06:00:00 5.1 4 Oeste 12 Sudoeste 0 -- -- 85
2020-11-12 05:00:00 4.8 7 Sudoeste 12 Oeste 0 -- -- 86
2020-11-12 04:00:00 4.5 4 Sudoeste 8 Sudoeste 0 -- -- 88
2020-11-12 03:00:00 5.5 4 Sur 16 Sudoeste 0 -- -- 83
2020-11-12 02:00:00 5.8 12 Sudoeste 15 Sudoeste 0 -- -- 82
2020-11-12 01:00:00 5.4 7 Oeste 19 Sur 0 -- -- 85
2020-11-12 00:00:00 6.1 9 Sudoeste 15 Sur 0 -- -- 84
2020-11-11 23:00:00 6.9 9 Sudoeste 15 Sudoeste 0 -- -- 81
2020-11-11 22:00:00 6.7 8 Sudoeste 12 Sudoeste 0 -- -- 82
2020-11-11 21:00:00 7.4 7 Sudoeste 10 Sudoeste 0 -- -- 80
2020-11-11 20:00:00 8.9 3 Nordeste 14 Sudoeste 0 -- -- 76
2020-11-11 19:00:00 10.3 7 Sur 20 Oeste 0 -- -- 71
2020-11-11 18:00:00 12 9 Oeste 22 Sudoeste 0 -- -- 63
2020-11-11 17:00:00 13.5 13 Oeste 31 Sudoeste 0 -- -- 58
2020-11-11 16:00:00 14 19 Sudoeste 32 Sudoeste 0 -- -- 56
2020-11-11 15:00:00 14.3 19 Oeste 40 Oeste 0 -- -- 53
2020-11-11 14:00:00 14.7 20 Oeste 33 Oeste 0 -- -- 54
2020-11-11 13:00:00 14.4 23 Sudoeste 34 Sudoeste 0 -- -- 52
2020-11-11 12:00:00 13.6 22 Sudoeste 32 Oeste 0 -- -- 54
2020-11-11 11:00:00 9.8 3 Nordeste 8 Este 0 -- -- 72
2020-11-11 10:00:00 5.2 3 Este 15 Sudoeste 0 -- -- 83
2020-11-11 09:00:00 2.4 10 Sudoeste 19 Oeste 0 -- -- 93
2020-11-11 08:00:00 0.5 9 Sudoeste 13 Sudoeste 0 -- -- 95
2020-11-11 07:00:00 0.4 0 Calma 13 Sudoeste 0 -- -- 93
2020-11-11 06:00:00 2.1 9 Sudoeste 19 Sudoeste 0 -- -- 94
2020-11-11 05:00:00 1.7 8 Oeste 13 Sudoeste 0 -- -- 94
2020-11-11 04:00:00 2.2 8 Sudoeste 20 Sudoeste 0 -- -- 94
2020-11-11 03:00:00 2.3 7 Sudoeste 15 Sudoeste 0 -- -- 94
2020-11-11 02:00:00 2.7 4 Sur 14 Oeste 0 -- -- 93
2020-11-11 01:00:00 3.5 12 Sudoeste 17 Sudoeste 0 -- -- 93
2020-11-11 00:00:00 4.2 6 Sur 14 Sudoeste 0 -- -- 91
2020-11-10 23:00:00 4.8 9 Sudoeste 15 Sudoeste 0 -- -- 92
2020-11-10 22:00:00 5.6 10 Sudoeste 12 Sudoeste 0 -- -- 91
2020-11-10 21:00:00 6.6 8 Sudoeste 11 Sudoeste 0 -- -- 90
2020-11-10 20:00:00 7.8 6 Oeste 8 Oeste 0 -- -- 87
2020-11-10 19:00:00 9.8 4 Sudoeste 8 Oeste 0 -- -- 78
2020-11-10 18:00:00 12.6 3 Norte 16 Norte 0 -- -- 66
2020-11-10 17:00:00 14.3 9 Norte 20 Noroeste 0 -- -- 58
2020-11-10 16:00:00 15.3 7 Norte 17 Norte 0 -- -- 53
2020-11-10 15:00:00 15.4 6 Nordeste 17 Norte 0 -- -- 52
2020-11-10 14:00:00 14.9 6 Nordeste 15 Nordeste 0 -- -- 55
2020-11-10 13:00:00 14.1 7 Nordeste 14 Norte 0 -- -- 58
2020-11-10 12:00:00 12.5 2 Norte 9 Sudoeste 0 -- -- 67
2020-11-10 11:00:00 9.5 6 Sudoeste 13 Sudoeste 0 -- -- 78
2020-11-10 10:00:00 6 9 Sudoeste 15 Sudoeste 0 -- -- 88
2020-11-10 09:00:00 3.1 10 Sudoeste 15 Sudoeste 0 -- -- 95
2020-11-10 08:00:00 2.2 5 Sudoeste 15 Sudoeste 0 -- -- 94
2020-11-10 07:00:00 2.7 7 Sudoeste 14 Sudoeste 0 -- -- 91
2020-11-10 06:00:00 2.7 10 Sudoeste 15 Sudoeste 0 -- -- 93
2020-11-10 05:00:00 3.3 8 Sudoeste 13 Sudoeste 0 -- -- 93
2020-11-10 04:00:00 4.1 8 Sudoeste 15 Sudoeste 0 -- -- 91
2020-11-10 03:00:00 3.3 6 Sudoeste 12 Sudoeste 0 -- -- 95
2020-11-10 02:00:00 4.3 7 Sudoeste 16 Sudoeste 0 -- -- 95
2020-11-10 01:00:00 4.6 6 Oeste 9 Oeste 0 -- -- 94
2020-11-10 00:00:00 5.3 5 Sudoeste 10 Sudoeste 0 -- -- 93
2020-11-09 23:00:00 6 5 Oeste 9 Oeste 0 -- -- 91
2020-11-09 22:00:00 7.1 3 Sudoeste 9 Sudoeste 0 -- -- 92
2020-11-09 21:00:00 7.7 2 Oeste 6 Sudoeste 0 -- -- 91
2020-11-09 20:00:00 8.1 2 Sur 6 Oeste 0 -- -- 88
2020-11-09 19:00:00 9.6 0 Calma 9 Norte 0 -- -- 84
2020-11-09 18:00:00 11.6 6 Norte 12 Norte 0 -- -- 74
2020-11-09 17:00:00 13 4 Sudoeste 11 Norte 0 -- -- 70
2020-11-09 16:00:00 12.7 6 Norte 12 Noroeste 0 -- -- 69
2020-11-09 15:00:00 12.5 3 Noroeste 12 Noroeste 0 -- -- 68
2020-11-09 14:00:00 12.4 4 Norte 16 Noroeste 0 -- -- 72
2020-11-09 13:00:00 12.6 5 Norte 16 Nordeste 0 -- -- 69
2020-11-09 12:00:00 12.4 5 Nordeste 11 Norte 0 -- -- 73
2020-11-09 11:00:00 11.1 3 Sur 9 Sudoeste 0 -- -- 80
2020-11-09 10:00:00 8.5 6 Sudeste 11 Sur 0 -- -- 89
2020-11-09 09:00:00 5.7 0 Calma 9 Sudoeste 0 -- -- 94
2020-11-09 08:00:00 5.4 3 Oeste 10 Este 0 -- -- 94
2020-11-09 07:00:00 6.6 3 Oeste 12 Sudoeste 0 -- -- 93
2020-11-09 06:00:00 7.1 8 Sudeste 18 Sur 0 -- -- 93
2020-11-09 05:00:00 7.8 3 Sudoeste 9 Este 0 -- -- 93
2020-11-09 04:00:00 8.3 5 Sudoeste 14 Sudoeste 0 -- -- 91
2020-11-09 03:00:00 9.5 12 Oeste 21 Sudoeste 0 -- -- 92
2020-11-09 02:00:00 9.3 12 Oeste 19 Sudoeste 0 -- -- 91
2020-11-09 01:00:00 9.5 9 Sudoeste 19 Oeste 0 -- -- 91
2020-11-09 00:00:00 9.7 8 Sudoeste 27 Sur 2.6 -- -- 84
2020-11-08 23:00:00 10.1 9 Sudoeste 30 Sur 1.4 -- -- 90
2020-11-08 22:00:00 10.7 15 Sudoeste 29 Sudoeste 0 -- -- 83
2020-11-08 21:00:00 9.8 10 Sudoeste 22 Sur 0 -- -- 90
2020-11-08 20:00:00 10 8 Sur 24 Sudoeste 3.6 -- -- 88
2020-11-08 19:00:00 10.2 5 Sudoeste 21 Sudoeste 1 -- -- 90
2020-11-08 18:00:00 10.8 9 Sudoeste 28 Sudoeste 1.2 -- -- 87
2020-11-08 17:00:00 10.8 12 Sudoeste 22 Sudoeste 1 -- -- 87
2020-11-08 16:00:00 11.3 18 Sur 33 Sudoeste 1 -- -- 81
2020-11-08 15:00:00 12.3 19 Sudoeste 33 Sur 0 -- -- 73
2020-11-08 14:00:00 12.5 19 Sudoeste 37 Sur 0 -- -- 71
2020-11-08 13:00:00 13.3 25 Sur 41 Sur 0 -- -- 67
2020-11-08 12:00:00 13.1 23 Sur 44 Sudoeste 0 -- -- 65
2020-11-08 11:00:00 12 24 Sudoeste 36 Sur 0 -- -- 69
2020-11-08 10:00:00 11.2 20 Sur 35 Sur 0 -- -- 70
2020-11-08 09:00:00 10.4 15 Sur 24 Sur 0 -- -- 66
2020-11-08 08:00:00 10.2 12 Sudoeste 27 Sudoeste 0 -- -- 71
2020-11-08 07:00:00 10.4 15 Sudoeste 28 Sudoeste 0 -- -- 73
2020-11-08 06:00:00 10 16 Sudoeste 31 Sudoeste 0 -- -- 79
2020-11-08 05:00:00 10.3 10 Sudoeste 24 Oeste 0 -- -- 76
2020-11-08 04:00:00 10.4 13 Sudoeste 24 Sur 0 -- -- 78
2020-11-08 03:00:00 10.8 15 Sur 31 Sur 0 -- -- 78
2020-11-08 02:00:00 11 19 Sur 31 Sur 0 -- -- 74
2020-11-08 01:00:00 10.4 17 Sudoeste 28 Sudoeste 0 -- -- 78
2020-11-08 00:00:00 10.4 12 Sudoeste 26 Sudoeste 0 -- -- 79
2020-11-07 23:00:00 10.2 14 Sudoeste 30 Sudoeste 0 -- -- 81
2020-11-07 22:00:00 10.3 13 Sudoeste 26 Sudoeste 0 -- -- 80
2020-11-07 21:00:00 9.9 13 Oeste 24 Sudoeste 0 -- -- 81
2020-11-07 20:00:00 10 14 Sudoeste 24 Sudoeste 0 -- -- 80
2020-11-07 19:00:00 9.6 13 Sudoeste 29 Sudoeste 0 -- -- 81
2020-11-07 18:00:00 10 21 Sudoeste 34 Sudoeste 0 -- -- 82
2020-11-07 17:00:00 10.9 20 Sudoeste 35 Oeste 0 -- -- 80
2020-11-07 16:00:00 12 19 Oeste 37 Sudoeste 0 -- -- 75
2020-11-07 15:00:00 12.2 22 Oeste 39 Oeste 0 -- -- 74
2020-11-07 14:00:00 11.6 22 Oeste 37 Sudoeste 0 -- -- 78
2020-11-07 13:00:00 11.5 23 Sudoeste 38 Sudoeste 0 -- -- 83
2020-11-07 12:00:00 11.4 23 Oeste 37 Sudoeste 0 -- -- 81
2020-11-07 11:00:00 9.6 23 Sudoeste 37 Sudoeste 0 -- -- 87
2020-11-07 10:00:00 9.3 12 Sudoeste 21 Sudoeste 0 -- -- 89
2020-11-07 09:00:00 8.9 11 Sudoeste 20 Sudoeste 0 -- -- 91
2020-11-07 08:00:00 8.8 3 Sur 18 Sur 0.2 -- -- 89
2020-11-07 07:00:00 9.2 10 Sur 16 Sudeste 0.2 -- -- 88
2020-11-07 06:00:00 9.3 7 Nordeste 33 Sur 0 -- -- 86
2020-11-07 05:00:00 9.7 18 Sur 24 Sur 0 -- -- 84
2020-11-07 04:00:00 9.3 3 Sudoeste 20 Oeste 1.6 -- -- 92
2020-11-07 03:00:00 9.7 10 Sudoeste 28 Oeste 1.4 -- -- 91
2020-11-07 02:00:00 10.6 13 Sudoeste 25 Sudoeste 0 -- -- 84
2020-11-07 01:00:00 10.2 8 Sur 59 Sur 1.8 -- -- 79
2020-11-07 00:00:00 11.4 19 Sur 45 Sur 0.8 -- -- 82
2020-11-06 23:00:00 12.6 29 Sur 62 Sur 0.2 -- -- 70
2020-11-06 22:00:00 12 24 Sur 49 Sur 3 -- -- 78
2020-11-06 21:00:00 13.6 29 Sur 69 Oeste 0 -- -- 74
2020-11-06 20:00:00 14.1 29 Sur 53 Sur 0 -- -- 69
2020-11-06 19:00:00 13.3 26 Sur 42 Sur 3.2 -- -- 78
2020-11-06 18:00:00 13.2 13 Sur 27 Sudoeste 2.2 -- -- 81
2020-11-06 17:00:00 14.1 14 Sudoeste 39 Sudoeste 0.4 -- -- 74
2020-11-06 16:00:00 15.4 17 Sudoeste 37 Sudoeste 0 -- -- 63
2020-11-06 15:00:00 15.1 21 Sur 44 Sudoeste 0 -- -- 63
2020-11-06 14:00:00 14.4 16 Sur 48 Sudeste 0.4 -- -- 71
2020-11-06 13:00:00 14.9 25 Sudoeste 49 Sur 0 -- -- 63
2020-11-06 12:00:00 14.7 17 Sudoeste 49 Sudeste 0.2 -- -- 65
2020-11-06 11:00:00 13.7 14 Sudoeste 34 Sudeste 0 -- -- 66
2020-11-06 10:00:00 10.6 5 Oeste 13 Oeste 0 -- -- 90
2020-11-06 09:00:00 9.3 4 Este 9 Este 0 -- -- 92
2020-11-06 08:00:00 9.7 4 Oeste 26 Sudoeste 0.6 -- -- 88
2020-11-06 07:00:00 10.7 19 Sur 35 Sur 1 -- -- 82
2020-11-06 06:00:00 10.6 9 Sur 30 Sur 0.6 -- -- 83
2020-11-06 05:00:00 10.8 15 Sur 37 Sur 0.8 -- -- 82
2020-11-06 04:00:00 11.3 22 Sur 51 Sur 1.2 -- -- 78
2020-11-06 03:00:00 11.9 21 Sur 44 Sudoeste 0.4 -- -- 75
2020-11-06 02:00:00 12.1 14 Sudoeste 26 Sudoeste 0 -- -- 74
2020-11-06 01:00:00 11.2 5 Sur 30 Sudoeste 0 -- -- 79
2020-11-06 00:00:00 11.6 18 Sur 36 Sur 0 -- -- 77
2020-11-05 23:00:00 10.5 13 Sudoeste 24 Sur 0 -- -- 79
2020-11-05 22:00:00 9.9 13 Sudoeste 24 Sur 0 -- -- 81
2020-11-05 21:00:00 8 7 Sudoeste 15 Oeste 0 -- -- 91
2020-11-05 20:00:00 8.6 10 Sudeste 26 Sur 0.6 -- -- 84
2020-11-05 19:00:00 8.4 17 Sur 39 Sur 5.8 -- -- 86
2020-11-05 18:00:00 9.4 20 Sudoeste 39 Sudoeste 0.8 -- -- 81
2020-11-05 17:00:00 11.2 3 Sudoeste 13 Sudoeste 0.2 -- -- 84
2020-11-05 16:00:00 11.4 4 Sudoeste 13 Sur 0.4 -- -- 89
2020-11-05 15:00:00 11.9 6 Sudeste 21 Sudoeste 0.4 -- -- 80
2020-11-05 14:00:00 11.4 5 Noroeste 22 Sudeste 0.6 -- -- 85
2020-11-05 13:00:00 12 11 Sur 30 Sur 0.4 -- -- 79
2020-11-05 12:00:00 11.4 12 Sur 40 Sur 1.4 -- -- 82
2020-11-05 11:00:00 11.4 9 Oeste 32 Sur 1 -- -- 81
2020-11-05 10:00:00 9.9 7 Noroeste 14 Oeste 2 -- -- 89
2020-11-05 09:00:00 10 5 Oeste 19 Nordeste 0.4 -- -- 83
2020-11-05 08:00:00 9.9 7 Nordeste 24 Oeste 1.2 -- -- 81
2020-11-05 07:00:00 9.2 5 Oeste 13 Norte 0.4 -- -- 86
2020-11-05 06:00:00 9.2 6 Oeste 12 Oeste 0.2 -- -- 88
2020-11-05 05:00:00 8.8 6 Sudoeste 24 Sur 0.6 -- -- 90
2020-11-05 04:00:00 7.9 10 Sudoeste 19 Sudoeste 0.4 -- -- 92
2020-11-05 03:00:00 7.6 4 Oeste 9 Noroeste 2 -- -- 93
2020-11-05 02:00:00 7.8 11 Sudoeste 23 Oeste 0.6 -- -- 92
2020-11-05 01:00:00 6.7 5 Oeste 9 Oeste 0.2 -- -- 96
2020-11-05 00:00:00 6.6 0 Calma 8 Sudoeste 1 -- -- 95
2020-11-04 23:00:00 6.7 4 Sudoeste 11 Sudoeste 1.6 -- -- 94
2020-11-04 22:00:00 6.6 5 Sur 25 Sur 2.2 -- -- 91
2020-11-04 21:00:00 6.5 7 Sudoeste 24 Sudeste 1.6 -- -- 92
2020-11-04 20:00:00 5.7 6 Sudoeste 13 Sudoeste 0 -- -- 95
2020-11-04 19:00:00 5.7 3 Oeste 7 Oeste 0.2 -- -- 93
2020-11-04 18:00:00 5.7 2 Oeste 6 Sur 1.8 -- -- 94
2020-11-04 17:00:00 5.7 5 Sudoeste 10 Sudoeste 0.6 -- -- 91
2020-11-04 16:00:00 6.3 6 Oeste 12 Sudoeste 0.6 -- -- 90
2020-11-04 15:00:00 5.5 3 Oeste 7 Oeste 1.4 -- -- 94
2020-11-04 14:00:00 5.2 3 Este 8 Norte 3.2 -- -- 94
2020-11-04 13:00:00 4.9 3 Nordeste 14 Norte 0 -- -- 94
2020-11-04 12:00:00 4.4 7 Norte 17 Norte 0.6 -- -- 95
2020-11-04 11:00:00 4.1 7 Norte 19 Norte 0 -- -- 94
2020-11-04 10:00:00 4.4 7 Norte 15 Norte 0 -- -- 95
2020-11-04 09:00:00 4.1 4 Norte 13 Norte 0 -- -- 95
2020-11-04 08:00:00 4 6 Norte 19 Norte 0 -- -- 94
2020-11-04 07:00:00 4.3 9 Norte 22 Norte 0 -- -- 93
2020-11-04 06:00:00 5.2 12 Norte 24 Norte 0 -- -- 91
2020-11-04 05:00:00 5.9 9 Norte 17 Norte 0 -- -- 91
2020-11-04 04:00:00 6.3 9 Norte 21 Norte 0 -- -- 90
2020-11-04 03:00:00 7 11 Norte 20 Norte -- -- -- 89
2020-11-04 02:00:00 7.9 7 Norte 14 Norte 0 -- -- 85
2020-11-04 01:00:00 8.5 5 Nordeste 10 Norte 0 -- -- 83
2020-11-04 00:00:00 9 4 Norte 13 Norte 0 -- -- 81
2020-11-03 23:00:00 9.1 5 Norte 13 Norte 0 -- -- 81
2020-11-03 22:00:00 9.3 10 Norte 17 Norte 0 -- -- 83
2020-11-03 21:00:00 9.8 3 Norte 8 Noroeste 0 -- -- 81
2020-11-03 20:00:00 9.9 2 Nordeste 11 Norte 0 -- -- 83
2020-11-03 19:00:00 9.7 4 Norte 13 Norte 0 -- -- 87
2020-11-03 18:00:00 9.8 8 Norte 15 Noroeste 0 -- -- 89
2020-11-03 17:00:00 9.9 7 Norte 14 Norte 0 -- -- 92
2020-11-03 16:00:00 10.2 7 Norte 19 Noroeste 0 -- -- 90
2020-11-03 15:00:00 10.4 7 Norte 14 Noroeste 0 -- -- 88
2020-11-03 14:00:00 9.9 5 Noroeste 16 Norte 0 -- -- 90
2020-11-03 13:00:00 10.1 7 Norte 14 Norte 0 -- -- 86
2020-11-03 12:00:00 9.6 7 Norte 15 Norte 0 -- -- 86
2020-11-03 11:00:00 9 8 Norte 17 Norte 0 -- -- 89
2020-11-03 10:00:00 8.4 6 Norte 18 Norte 0 -- -- 91
2020-11-03 09:00:00 8 12 Norte 20 Norte 0 -- -- 91
2020-11-03 08:00:00 9 6 Nordeste 17 Noroeste 0 -- -- 94
2020-11-03 07:00:00 9.4 9 Norte 23 Norte 0 -- -- 92
2020-11-03 06:00:00 10.7 12 Norte 24 Norte 0 -- -- 93
2020-11-03 05:00:00 10.5 0 Calma 4 Nordeste 0 -- -- 92
2020-11-03 04:00:00 10.8 3 Oeste 9 Oeste 0 -- -- 91
2020-11-03 03:00:00 10.8 4 Oeste 7 Oeste 0 -- -- 92
2020-11-03 02:00:00 10.6 2 Sudoeste 5 Oeste 0 -- -- 92
2020-11-03 01:00:00 10.2 0 Calma 6 Este 0 -- -- 92
2020-11-03 00:00:00 10.4 2 Sur 7 Sudoeste 0 -- -- 92
2020-11-02 23:00:00 10.6 5 Sudoeste 7 Sudoeste 0 -- -- 91
2020-11-02 22:00:00 11.8 0 Calma 3 Sudoeste 0 -- -- 88
2020-11-02 21:00:00 12.5 2 Oeste 5 Oeste 0 -- -- 86
2020-11-02 20:00:00 13.6 0 Calma 7 Este 0 -- -- 83
2020-11-02 19:00:00 14.4 4 Nordeste 11 Norte 0 -- -- 80
2020-11-02 18:00:00 15 5 Norte 12 Norte 0 -- -- 78
2020-11-02 17:00:00 16.1 4 Nordeste 12 Norte 0 -- -- 74
2020-11-02 16:00:00 16.7 6 Norte 13 Norte 0 -- -- 70
2020-11-02 15:00:00 16.6 5 Nordeste 10 Este 0 -- -- 70
2020-11-02 14:00:00 16.4 4 Norte 9 Norte 0 -- -- 71
2020-11-02 13:00:00 16.1 2 Nordeste 13 Nordeste 0 -- -- 73
2020-11-02 12:00:00 14.4 6 Norte 10 Norte 0 -- -- 80
2020-11-02 11:00:00 12.6 5 Nordeste 10 Nordeste 0 -- -- 89
2020-11-02 10:00:00 11 0 Calma 4 Este 0 -- -- 92
2020-11-02 09:00:00 10.1 0 Calma 7 Este 0 -- -- 92
2020-11-02 08:00:00 9.9 3 Sudoeste 5 Sudoeste 0 -- -- 92
2020-11-02 07:00:00 10 2 Sudoeste 4 Oeste 0 -- -- 91
2020-11-02 06:00:00 10.3 3 Norte 6 Nordeste 0 -- -- 90
2020-11-02 05:00:00 10.1 0 Calma -- -- 0 -- -- 89
2020-11-02 04:00:00 10.4 0 Calma -- -- 0 -- -- 87
2020-11-02 03:00:00 11 2 Oeste 9 Sudoeste 0 -- -- 86
2020-11-02 02:00:00 10.9 5 Sudoeste 10 Sudoeste 0 -- -- 86
2020-11-02 01:00:00 11.6 3 Oeste 4 Oeste 0 -- -- 83
2020-11-02 00:00:00 12.3 3 Sudoeste 13 Sudoeste 0 -- -- 77